Time;durP1;ratioP1;P1;durP2;ratioP2;P2;SDS_P1;SDS_P2;PMS_P1;PMS_P2;Temp;Humidity;BMP_temperature;BMP_pressure;BME280_temperature;BME280_humidity;BME280_pressure;Samples;Min_cycle;Max_cycle;Signal;HPM_P1;HPM_P2
2022/07/05 00:00:28;;;;;;;8.50;7.40;;;;;;;;;;4990006;28;20226;-71
2022/07/05 00:02:53;;;;;;;8.90;7.18;;;;;;;;;;5007865;28;20181;-72
2022/07/05 00:05:18;;;;;;;9.23;8.32;;;;;;;;;;5006347;28;20187;-71
2022/07/05 00:07:44;;;;;;;10.40;8.65;;;;;;;;;;5007179;28;20282;-72
2022/07/05 00:10:09;;;;;;;12.63;8.65;;;;;;;;;;4992898;28;20210;-72
2022/07/05 00:12:34;;;;;;;11.07;8.85;;;;;;;;;;5008195;28;20562;-72
2022/07/05 00:15:00;;;;;;;9.70;8.48;;;;;;;;;;5011532;28;20649;-72
2022/07/05 00:17:25;;;;;;;14.88;9.48;;;;;;;;;;5010743;28;20218;-72
2022/07/05 00:19:50;;;;;;;8.05;7.35;;;;;;;;;;5009736;28;20577;-72
2022/07/05 00:22:16;;;;;;;9.88;7.43;;;;;;;;;;4999315;28;20211;-72
2022/07/05 00:24:41;;;;;;;8.20;7.40;;;;;;;;;;5010501;28;20262;-71
2022/07/05 00:27:06;;;;;;;8.43;7.47;;;;;;;;;;5007162;28;20179;-72
2022/07/05 00:29:31;;;;;;;8.48;7.68;;;;;;;;;;5009408;28;20221;-71
2022/07/05 00:31:56;;;;;;;8.30;7.50;;;;;;;;;;5010885;28;20554;-72
2022/07/05 00:34:22;;;;;;;9.10;8.25;;;;;;;;;;5010811;28;20183;-72
2022/07/05 00:36:47;;;;;;;8.05;7.25;;;;;;;;;;5008513;28;20685;-71
2022/07/05 00:39:13;;;;;;;8.90;7.90;;;;;;;;;;5011342;28;20186;-71
2022/07/05 00:41:38;;;;;;;9.20;8.30;;;;;;;;;;5011932;28;20209;-71
2022/07/05 00:44:08;;;;;;;9.02;8.13;;;;;;;;;;5009631;28;20542;-71
2022/07/05 00:46:33;;;;;;;8.88;8.05;;;;;;;;;;5011176;28;20206;-71
2022/07/05 00:48:59;;;;;;;12.13;10.20;;;;;;;;;;5012424;28;20223;-71
2022/07/05 00:51:25;;;;;;;11.45;9.73;;;;;;;;;;5007171;28;20586;-72
2022/07/05 00:53:50;;;;;;;11.30;10.20;;;;;;;;;;5013150;28;20183;-71
2022/07/05 00:56:16;;;;;;;9.55;8.65;;;;;;;;;;5013267;28;20207;-71
2022/07/05 00:58:41;;;;;;;9.90;8.90;;;;;;;;;;5012318;28;20619;-72
2022/07/05 01:01:07;;;;;;;8.95;8.00;;;;;;;;;;5004978;28;20191;-71
2022/07/05 01:03:32;;;;;;;10.68;9.63;;;;;;;;;;5012419;28;20185;-71
2022/07/05 01:05:58;;;;;;;10.30;9.30;;;;;;;;;;5009816;28;20186;-71
2022/07/05 01:08:24;;;;;;;11.98;10.77;;;;;;;;;;5007937;28;20190;-71
2022/07/05 01:10:49;;;;;;;10.00;9.02;;;;;;;;;;5005677;28;20605;-71
2022/07/05 01:13:14;;;;;;;12.48;11.15;;;;;;;;;;4999322;28;20186;-71
2022/07/05 01:15:40;;;;;;;14.35;12.35;;;;;;;;;;5012010;28;20198;-72
2022/07/05 01:18:06;;;;;;;15.68;12.02;;;;;;;;;;5009689;28;20187;-71
2022/07/05 01:20:31;;;;;;;13.45;11.93;;;;;;;;;;5011813;28;20198;-72
2022/07/05 01:22:59;;;;;;;12.48;11.23;;;;;;;;;;4995591;28;20304;-72
2022/07/05 01:25:25;;;;;;;13.55;10.98;;;;;;;;;;5008739;28;20183;-72
2022/07/05 01:27:51;;;;;;;11.77;9.35;;;;;;;;;;5011241;28;20270;-71
2022/07/05 01:30:17;;;;;;;9.73;8.82;;;;;;;;;;5004426;28;20289;-72
2022/07/05 01:32:42;;;;;;;10.82;9.60;;;;;;;;;;5009248;28;20756;-72
2022/07/05 01:35:08;;;;;;;12.90;11.50;;;;;;;;;;5011919;28;20183;-72
2022/07/05 01:37:33;;;;;;;14.15;12.73;;;;;;;;;;5011455;28;20179;-71
2022/07/05 01:40:01;;;;;;;12.20;11.05;;;;;;;;;;4998388;28;20217;-71
2022/07/05 01:42:26;;;;;;;13.75;11.98;;;;;;;;;;5003460;28;20186;-71
2022/07/05 01:44:51;;;;;;;15.43;12.60;;;;;;;;;;5009193;28;20179;-71
2022/07/05 01:47:17;;;;;;;13.52;12.10;;;;;;;;;;5009740;28;20219;-70
2022/07/05 01:49:43;;;;;;;14.88;13.38;;;;;;;;;;5009286;28;20278;-70
2022/07/05 01:52:10;;;;;;;15.98;13.02;;;;;;;;;;4997685;28;20652;-70
2022/07/05 01:54:35;;;;;;;15.63;13.88;;;;;;;;;;5009990;28;20652;-71
2022/07/05 01:57:00;;;;;;;14.50;12.40;;;;;;;;;;5010831;28;20210;-70
2022/07/05 01:59:27;;;;;;;16.77;13.80;;;;;;;;;;5007393;28;20202;-70
2022/07/05 02:01:52;;;;;;;14.50;12.85;;;;;;;;;;5003130;28;20175;-70
2022/07/05 02:04:17;;;;;;;12.57;11.27;;;;;;;;;;5012179;28;20182;-70
2022/07/05 02:06:45;;;;;;;12.15;10.85;;;;;;;;;;5011528;28;20182;-71
2022/07/05 02:09:10;;;;;;;12.77;11.52;;;;;;;;;;5011207;28;20225;-70
2022/07/05 02:11:35;;;;;;;13.20;11.90;;;;;;;;;;5012498;28;20183;-70
2022/07/05 02:14:01;;;;;;;12.82;11.50;;;;;;;;;;5008050;28;20860;-71
2022/07/05 02:16:26;;;;;;;13.02;11.70;;;;;;;;;;5006386;28;20194;-70
2022/07/05 02:18:51;;;;;;;14.73;12.88;;;;;;;;;;5008470;28;20663;-70
2022/07/05 02:21:16;;;;;;;16.23;13.02;;;;;;;;;;5011636;28;20210;-71
2022/07/05 02:23:42;;;;;;;15.50;13.27;;;;;;;;;;5008150;28;20171;-70
2022/07/05 02:26:07;;;;;;;14.48;12.73;;;;;;;;;;5008426;28;20183;-71
2022/07/05 02:28:32;;;;;;;15.98;13.02;;;;;;;;;;5009512;28;20179;-70
2022/07/05 02:30:57;;;;;;;13.88;12.38;;;;;;;;;;5046194;22;20702;-74
2022/07/05 02:33:22;;;;;;;15.10;13.52;;;;;;;;;;5050257;28;20220;-74
2022/07/05 02:35:48;;;;;;;15.30;12.90;;;;;;;;;;5050876;28;20237;-74
2022/07/05 02:38:13;;;;;;;13.38;11.98;;;;;;;;;;5032112;28;20261;-74
2022/07/05 02:40:38;;;;;;;12.95;11.52;;;;;;;;;;5050411;28;20235;-74
2022/07/05 02:43:03;;;;;;;15.30;13.27;;;;;;;;;;5046038;28;20205;-74
2022/07/05 02:45:28;;;;;;;16.35;13.45;;;;;;;;;;5032537;28;20212;-74
2022/07/05 02:47:54;;;;;;;12.68;11.38;;;;;;;;;;5049776;28;20170;-73
2022/07/05 02:50:19;;;;;;;14.68;12.25;;;;;;;;;;5049477;28;20201;-74
2022/07/05 02:52:45;;;;;;;15.25;13.05;;;;;;;;;;5048682;28;20182;-74
2022/07/05 02:55:10;;;;;;;14.73;12.85;;;;;;;;;;5051196;28;20647;-74
2022/07/05 02:57:38;;;;;;;16.65;12.55;;;;;;;;;;5051579;28;20177;-74
2022/07/05 03:00:04;;;;;;;13.25;11.43;;;;;;;;;;5054838;28;20197;-73
2022/07/05 03:02:30;;;;;;;14.82;11.93;;;;;;;;;;5054044;28;20670;-74
2022/07/05 03:04:55;;;;;;;12.65;11.23;;;;;;;;;;5037081;28;20203;-74
2022/07/05 03:07:21;;;;;;;14.20;11.98;;;;;;;;;;5054712;28;20174;-74
2022/07/05 03:09:46;;;;;;;13.70;12.38;;;;;;;;;;5054573;28;20670;-75
2022/07/05 03:12:11;;;;;;;14.00;11.20;;;;;;;;;;5053825;28;20549;-74
2022/07/05 03:14:36;;;;;;;14.75;13.18;;;;;;;;;;5048901;28;20553;-74
2022/07/05 03:17:02;;;;;;;13.73;12.33;;;;;;;;;;5052814;28;20212;-73
2022/07/05 03:19:27;;;;;;;13.93;12.55;;;;;;;;;;5049140;28;20269;-73
2022/07/05 03:21:52;;;;;;;14.88;11.93;;;;;;;;;;5032723;28;20179;-76
2022/07/05 03:24:17;;;;;;;13.18;11.80;;;;;;;;;;5052871;28;20264;-73
2022/07/05 03:26:42;;;;;;;14.13;11.27;;;;;;;;;;5044061;28;20182;-74
2022/07/05 03:29:08;;;;;;;14.65;12.15;;;;;;;;;;5051693;28;20177;-73
2022/07/05 03:31:33;;;;;;;12.93;11.63;;;;;;;;;;5051480;28;20225;-73
2022/07/05 03:33:58;;;;;;;12.60;11.30;;;;;;;;;;5034416;28;20186;-73
2022/07/05 03:36:23;;;;;;;15.05;13.45;;;;;;;;;;5052907;28;20205;-73
2022/07/05 03:38:49;;;;;;;14.75;12.55;;;;;;;;;;5053973;28;20181;-75
2022/07/05 03:41:14;;;;;;;13.07;11.77;;;;;;;;;;5051600;28;20212;-73
2022/07/05 03:43:39;;;;;;;14.40;12.90;;;;;;;;;;5038748;28;20185;-73
2022/07/05 03:46:04;;;;;;;14.52;12.35;;;;;;;;;;5053146;28;20188;-73
2022/07/05 03:48:29;;;;;;;12.63;11.32;;;;;;;;;;5051535;28;20257;-73
2022/07/05 03:50:55;;;;;;;13.65;11.55;;;;;;;;;;5052829;28;20225;-74
2022/07/05 03:53:20;;;;;;;16.27;13.30;;;;;;;;;;5045875;28;20230;-74
2022/07/05 03:55:45;;;;;;;13.65;12.13;;;;;;;;;;5046634;28;20684;-74
2022/07/05 03:58:10;;;;;;;16.85;14.38;;;;;;;;;;5031297;28;20186;-74
2022/07/05 04:00:36;;;;;;;16.48;14.43;;;;;;;;;;5048801;28;20209;-74
2022/07/05 04:03:01;;;;;;;17.77;15.63;;;;;;;;;;5052284;28;20201;-74
2022/07/05 04:05:26;;;;;;;17.35;15.55;;;;;;;;;;5052838;28;20177;-74
2022/07/05 04:07:52;;;;;;;19.00;15.50;;;;;;;;;;5051240;28;20203;-73
2022/07/05 04:10:17;;;;;;;15.00;12.82;;;;;;;;;;5034358;28;20194;-74
2022/07/05 04:12:43;;;;;;;16.83;14.68;;;;;;;;;;5045130;28;20190;-74
2022/07/05 04:15:08;;;;;;;16.25;14.65;;;;;;;;;;5054125;28;20257;-74
2022/07/05 04:17:34;;;;;;;16.67;14.95;;;;;;;;;;5035257;28;20760;-74
2022/07/05 04:19:59;;;;;;;17.20;15.50;;;;;;;;;;5053672;28;20233;-75
2022/07/05 04:22:24;;;;;;;15.75;14.10;;;;;;;;;;5031818;28;20182;-74
2022/07/05 04:27:33;;;;;;;16.52;14.82;;;;;;;;;;5047128;28;20216;-74
2022/07/05 04:29:58;;;;;;;17.02;15.32;;;;;;;;;;5051567;28;20248;-74
2022/07/05 04:32:23;;;;;;;15.82;14.13;;;;;;;;;;5052259;28;20178;-74
2022/07/05 04:34:49;;;;;;;16.15;13.88;;;;;;;;;;5053093;28;20226;-74
2022/07/05 04:37:14;;;;;;;15.18;13.57;;;;;;;;;;5052451;28;20202;-74
2022/07/05 04:39:39;;;;;;;16.10;14.43;;;;;;;;;;5049927;28;20202;-74
2022/07/05 04:42:04;;;;;;;14.27;12.75;;;;;;;;;;5051700;28;20268;-74
2022/07/05 04:44:29;;;;;;;16.27;13.80;;;;;;;;;;5051765;28;20182;-74
2022/07/05 04:46:55;;;;;;;15.68;13.20;;;;;;;;;;5049847;28;20215;-74
2022/07/05 04:49:20;;;;;;;13.73;11.57;;;;;;;;;;5050512;28;20174;-75
2022/07/05 04:51:45;;;;;;;15.57;10.90;;;;;;;;;;5049327;28;20576;-74
2022/07/05 04:54:10;;;;;;;12.68;10.80;;;;;;;;;;5056142;28;20189;-74
2022/07/05 04:56:35;;;;;;;14.30;12.80;;;;;;;;;;5050370;28;20288;-73
2022/07/05 04:59:00;;;;;;;13.43;12.13;;;;;;;;;;5050550;28;20174;-74
2022/07/05 05:01:26;;;;;;;15.75;12.95;;;;;;;;;;5043907;28;20186;-74
2022/07/05 05:03:51;;;;;;;12.98;11.77;;;;;;;;;;5045080;28;20173;-74
2022/07/05 05:06:16;;;;;;;11.73;10.57;;;;;;;;;;5050576;28;20193;-73
2022/07/05 05:08:41;;;;;;;13.43;12.02;;;;;;;;;;5048468;28;20177;-74
2022/07/05 05:11:07;;;;;;;13.57;12.15;;;;;;;;;;5047784;28;20220;-74
2022/07/05 05:13:32;;;;;;;12.30;10.98;;;;;;;;;;5052713;28;20185;-74
2022/07/05 05:15:58;;;;;;;13.38;11.35;;;;;;;;;;5045714;28;20211;-74
2022/07/05 05:18:26;;;;;;;12.40;11.20;;;;;;;;;;5029680;28;20315;-74
2022/07/05 05:20:52;;;;;;;13.20;11.80;;;;;;;;;;5050528;28;20703;-74
2022/07/05 05:23:17;;;;;;;13.18;11.98;;;;;;;;;;5034784;28;20341;-74
2022/07/05 05:25:42;;;;;;;13.05;11.70;;;;;;;;;;5045409;28;20320;-73
2022/07/05 05:28:07;;;;;;;14.30;12.77;;;;;;;;;;5050498;28;20173;-74
2022/07/05 05:30:32;;;;;;;13.30;11.88;;;;;;;;;;5044739;28;20787;-73
2022/07/05 05:32:58;;;;;;;15.25;12.18;;;;;;;;;;5046007;28;20224;-73
2022/07/05 05:35:23;;;;;;;18.35;12.95;;;;;;;;;;5049643;28;20304;-73
2022/07/05 05:37:50;;;;;;;15.10;12.52;;;;;;;;;;5045297;28;20235;-73
2022/07/05 05:40:15;;;;;;;14.90;12.85;;;;;;;;;;5048393;28;20217;-74
2022/07/05 05:42:40;;;;;;;14.20;12.70;;;;;;;;;;5040538;28;20231;-74
2022/07/05 05:45:06;;;;;;;13.10;11.82;;;;;;;;;;5048236;28;20235;-73
2022/07/05 05:47:31;;;;;;;13.48;11.40;;;;;;;;;;5046667;28;20186;-73
2022/07/05 05:49:56;;;;;;;11.02;9.63;;;;;;;;;;5050400;28;20216;-74
2022/07/05 05:52:21;;;;;;;11.65;10.55;;;;;;;;;;5047312;28;20609;-74
2022/07/05 05:54:47;;;;;;;12.60;10.30;;;;;;;;;;5052832;28;20192;-73
2022/07/05 05:57:12;;;;;;;11.20;10.05;;;;;;;;;;5053775;28;20216;-74
2022/07/05 05:59:37;;;;;;;12.82;10.40;;;;;;;;;;5049599;28;20258;-75
2022/07/05 06:02:02;;;;;;;12.27;10.18;;;;;;;;;;5042821;28;20189;-74
2022/07/05 06:04:27;;;;;;;12.80;9.80;;;;;;;;;;5047898;28;20185;-73
2022/07/05 06:06:53;;;;;;;10.90;9.70;;;;;;;;;;5030228;28;20192;-74
2022/07/05 06:09:18;;;;;;;9.80;8.88;;;;;;;;;;5044997;28;20481;-73
2022/07/05 06:11:43;;;;;;;11.40;10.30;;;;;;;;;;5048213;28;20210;-74
2022/07/05 06:14:09;;;;;;;10.50;9.27;;;;;;;;;;5025569;28;20423;-73
2022/07/05 06:16:34;;;;;;;9.82;8.68;;;;;;;;;;5047456;28;20193;-73
2022/07/05 06:18:59;;;;;;;10.43;9.30;;;;;;;;;;5033630;28;20678;-74
2022/07/05 06:21:24;;;;;;;10.73;9.07;;;;;;;;;;5041314;28;20285;-73
2022/07/05 06:23:50;;;;;;;11.73;8.75;;;;;;;;;;5033668;28;20182;-74
2022/07/05 06:26:15;;;;;;;9.67;8.37;;;;;;;;;;5036301;28;20677;-74
2022/07/05 06:28:40;;;;;;;9.32;8.52;;;;;;;;;;5034966;28;20418;-74
2022/07/05 06:31:05;;;;;;;9.53;8.53;;;;;;;;;;5047134;28;20220;-74
2022/07/05 06:33:30;;;;;;;10.47;9.47;;;;;;;;;;5048440;28;20434;-73
2022/07/05 06:35:56;;;;;;;10.75;8.70;;;;;;;;;;5051028;28;20970;-74
2022/07/05 06:38:21;;;;;;;10.80;9.17;;;;;;;;;;5049763;28;20660;-74
2022/07/05 06:40:46;;;;;;;9.45;8.45;;;;;;;;;;5051000;28;20523;-73
2022/07/05 06:43:13;;;;;;;10.35;8.85;;;;;;;;;;5051123;28;20237;-74
2022/07/05 06:45:38;;;;;;;8.82;7.90;;;;;;;;;;5051310;28;20195;-74
2022/07/05 06:48:04;;;;;;;8.98;8.18;;;;;;;;;;5050330;28;20189;-74
2022/07/05 06:50:31;;;;;;;11.02;8.88;;;;;;;;;;5051249;28;20197;-75
2022/07/05 06:52:56;;;;;;;10.85;7.28;;;;;;;;;;5048718;28;20235;-72
2022/07/05 06:55:22;;;;;;;7.95;6.90;;;;;;;;;;5051245;28;20203;-72
2022/07/05 06:57:47;;;;;;;8.45;5.30;;;;;;;;;;5049708;28;20189;-72
2022/07/05 07:00:13;;;;;;;6.75;6.07;;;;;;;;;;5045183;28;20197;-73
2022/07/05 07:02:38;;;;;;;11.32;6.63;;;;;;;;;;5047466;28;20205;-73
2022/07/05 07:05:04;;;;;;;8.87;6.50;;;;;;;;;;5037592;28;20178;-72
2022/07/05 07:10:16;;;;;;;5.78;3.55;;;;;;;;;;5040177;28;20209;-73
2022/07/05 07:12:41;;;;;;;5.40;3.90;;;;;;;;;;5049646;28;20185;-72
2022/07/05 07:15:07;;;;;;;6.93;5.03;;;;;;;;;;5050558;28;20427;-72
2022/07/05 07:17:32;;;;;;;8.80;4.65;;;;;;;;;;5048306;28;20450;-72
2022/07/05 07:19:57;;;;;;;5.43;4.70;;;;;;;;;;5047710;28;20252;-74
2022/07/05 07:22:22;;;;;;;5.37;4.80;;;;;;;;;;5050591;28;20169;-73
2022/07/05 07:24:47;;;;;;;5.20;4.80;;;;;;;;;;5049892;28;20873;-73
2022/07/05 07:27:13;;;;;;;6.38;5.38;;;;;;;;;;5047974;28;20438;-73
2022/07/05 07:29:38;;;;;;;8.48;6.22;;;;;;;;;;5047835;28;20278;-73
2022/07/05 07:32:04;;;;;;;8.00;5.45;;;;;;;;;;5042635;28;20232;-72
2022/07/05 07:34:30;;;;;;;12.13;6.78;;;;;;;;;;5045187;28;20196;-72
2022/07/05 07:36:55;;;;;;;7.78;6.97;;;;;;;;;;5046994;28;20212;-72
2022/07/05 07:39:21;;;;;;;8.35;7.55;;;;;;;;;;5044395;28;20672;-72
2022/07/05 07:41:46;;;;;;;6.25;5.63;;;;;;;;;;5045123;28;20299;-72
2022/07/05 07:44:12;;;;;;;6.50;5.90;;;;;;;;;;5037296;28;20177;-72
2022/07/05 07:46:39;;;;;;;6.57;5.97;;;;;;;;;;5020095;28;20566;-72
2022/07/05 07:49:04;;;;;;;6.85;5.43;;;;;;;;;;5033272;28;20196;-72
2022/07/05 07:51:29;;;;;;;4.85;4.45;;;;;;;;;;5036622;28;20209;-72
2022/07/05 07:53:54;;;;;;;4.50;3.00;;;;;;;;;;5031922;28;20216;-72
2022/07/05 07:56:20;;;;;;;2.30;1.90;;;;;;;;;;5037708;28;20470;-72
2022/07/05 07:58:46;;;;;;;2.58;2.38;;;;;;;;;;5035679;28;20663;-72
2022/07/05 08:01:11;;;;;;;2.70;2.50;;;;;;;;;;5031146;28;20194;-72
2022/07/05 08:03:37;;;;;;;2.42;2.13;;;;;;;;;;5034318;28;20183;-72
2022/07/05 08:06:02;;;;;;;4.05;2.25;;;;;;;;;;5033523;28;20189;-72
2022/07/05 08:08:27;;;;;;;3.28;2.47;;;;;;;;;;5035023;28;20178;-72
2022/07/05 08:10:52;;;;;;;5.23;3.20;;;;;;;;;;5033927;28;20218;-72
2022/07/05 08:13:18;;;;;;;4.63;3.10;;;;;;;;;;5034785;28;20427;-72
2022/07/05 08:15:43;;;;;;;4.27;2.40;;;;;;;;;;5036175;28;20486;-72
2022/07/05 08:23:36;;;;;;;4.22;1.85;;;;;;;;;;5037610;28;20201;-72
2022/07/05 08:26:01;;;;;;;3.42;2.40;;;;;;;;;;5036480;28;20573;-72
2022/07/05 08:28:26;;;;;;;2.63;2.13;;;;;;;;;;5033879;28;20186;-72
2022/07/05 08:30:52;;;;;;;1.92;1.40;;;;;;;;;;5046285;22;20586;-70
2022/07/05 08:33:17;;;;;;;3.13;1.50;;;;;;;;;;5032341;28;20265;-71
2022/07/05 08:35:42;;;;;;;2.05;1.50;;;;;;;;;;5029343;28;20583;-72
2022/07/05 08:38:07;;;;;;;2.37;1.37;;;;;;;;;;5032911;28;20178;-71
2022/07/05 08:40:36;;;;;;;4.30;2.60;;;;;;;;;;5032195;28;20459;-70
2022/07/05 08:43:02;;;;;;;7.63;1.70;;;;;;;;;;5032144;28;20186;-70
2022/07/05 08:45:29;;;;;;;3.55;0.93;;;;;;;;;;5013906;28;20183;-71
2022/07/05 08:47:56;;;;;;;2.45;0.77;;;;;;;;;;5030942;28;20602;-70
2022/07/05 08:50:21;;;;;;;2.47;0.90;;;;;;;;;;5032076;28;20620;-70
2022/07/05 08:52:47;;;;;;;1.67;0.70;;;;;;;;;;5028368;28;20269;-71
2022/07/05 08:55:12;;;;;;;2.40;0.90;;;;;;;;;;5032279;28;20644;-70
2022/07/05 08:57:38;;;;;;;1.15;0.65;;;;;;;;;;5030986;28;20664;-71
2022/07/05 09:00:03;;;;;;;1.83;1.00;;;;;;;;;;5032916;28;20612;-71
2022/07/05 09:02:28;;;;;;;2.05;0.77;;;;;;;;;;5031063;28;20433;-70
2022/07/05 09:04:55;;;;;;;3.55;1.15;;;;;;;;;;5031942;28;20265;-70
2022/07/05 09:07:22;;;;;;;3.88;1.00;;;;;;;;;;5023929;28;20174;-72
2022/07/05 09:09:48;;;;;;;3.20;0.90;;;;;;;;;;5016274;28;20189;-70
2022/07/05 09:12:14;;;;;;;2.53;0.73;;;;;;;;;;5017279;28;20179;-70
2022/07/05 09:14:40;;;;;;;3.70;1.00;;;;;;;;;;5017278;28;20318;-71
2022/07/05 09:17:05;;;;;;;4.75;1.20;;;;;;;;;;5016621;28;20683;-71
2022/07/05 09:19:31;;;;;;;4.00;1.17;;;;;;;;;;5012282;28;20295;-71
2022/07/05 09:22:08;;;;;;;1.38;0.80;;;;;;;;;;4999747;28;20203;-71
2022/07/05 09:24:42;;;;;;;2.55;0.90;;;;;;;;;;5012750;28;20183;-71
2022/07/05 09:27:07;;;;;;;2.20;0.80;;;;;;;;;;5015082;28;20275;-71
2022/07/05 09:29:32;;;;;;;3.80;1.00;;;;;;;;;;5014784;28;20195;-72
2022/07/05 09:31:58;;;;;;;5.05;1.15;;;;;;;;;;5011889;28;20739;-71
2022/07/05 09:34:23;;;;;;;3.03;1.13;;;;;;;;;;5014984;28;20185;-71
2022/07/05 09:36:58;;;;;;;4.57;1.63;;;;;;;;;;5015874;28;20202;-71
2022/07/05 09:39:29;;;;;;;2.47;1.70;;;;;;;;;;5021686;28;20465;-71
2022/07/05 09:42:13;;;;;;;1.80;0.80;;;;;;;;;;5013842;28;20202;-71
2022/07/05 09:44:38;;;;;;;5.38;1.70;;;;;;;;;;5017086;28;20186;-71
2022/07/05 09:47:07;;;;;;;3.53;0.88;;;;;;;;;;5011204;28;20183;-71
2022/07/05 09:49:32;;;;;;;3.55;0.98;;;;;;;;;;5012873;28;20219;-70
2022/07/05 09:51:57;;;;;;;5.50;0.90;;;;;;;;;;5016406;28;20599;-71
2022/07/05 09:54:23;;;;;;;2.27;1.00;;;;;;;;;;5013165;28;20959;-71
2022/07/05 09:56:48;;;;;;;3.28;0.80;;;;;;;;;;5013066;28;20459;-71
2022/07/05 09:59:15;;;;;;;2.08;0.70;;;;;;;;;;5017444;28;20186;-71
2022/07/05 10:01:40;;;;;;;3.35;0.75;;;;;;;;;;5014923;28;22386;-71
2022/07/05 10:04:07;;;;;;;7.10;1.10;;;;;;;;;;5016936;28;20218;-70
2022/07/05 10:06:33;;;;;;;1.63;0.95;;;;;;;;;;5013625;28;20442;-71
2022/07/05 10:08:58;;;;;;;3.08;0.95;;;;;;;;;;5014293;28;20656;-71
2022/07/05 10:11:24;;;;;;;6.53;1.02;;;;;;;;;;5018505;28;20238;-70
2022/07/05 10:13:53;;;;;;;1.50;0.75;;;;;;;;;;5016903;28;20177;-71
2022/07/05 10:16:19;;;;;;;3.83;0.88;;;;;;;;;;5014693;28;20211;-71
2022/07/05 10:18:46;;;;;;;2.90;0.80;;;;;;;;;;5015646;28;20183;-71
2022/07/05 10:21:15;;;;;;;3.60;0.95;;;;;;;;;;4995777;28;20198;-70
2022/07/05 10:23:53;;;;;;;2.10;0.80;;;;;;;;;;5012145;28;20625;-71
2022/07/05 10:26:19;;;;;;;3.22;0.80;;;;;;;;;;5013534;28;20181;-71
2022/07/05 10:28:46;;;;;;;3.63;0.80;;;;;;;;;;5017106;28;20174;-71
2022/07/05 10:31:11;;;;;;;2.63;0.98;;;;;;;;;;5029838;28;20331;-70
2022/07/05 10:33:37;;;;;;;2.20;0.75;;;;;;;;;;5028904;28;20647;-70
2022/07/05 10:36:03;;;;;;;3.08;0.88;;;;;;;;;;5031008;28;20671;-70
2022/07/05 10:38:29;;;;;;;3.33;0.82;;;;;;;;;;5029432;28;20597;-71
2022/07/05 10:40:55;;;;;;;3.13;1.02;;;;;;;;;;5031341;28;20206;-71
2022/07/05 10:43:24;;;;;;;3.05;0.68;;;;;;;;;;5031036;28;20636;-71
2022/07/05 10:45:49;;;;;;;2.47;0.70;;;;;;;;;;5030331;28;20178;-70
2022/07/05 10:48:15;;;;;;;0.80;0.50;;;;;;;;;;5030913;28;20174;-71
2022/07/05 10:50:44;;;;;;;2.28;0.90;;;;;;;;;;5030376;28;20221;-71
2022/07/05 10:53:09;;;;;;;3.47;0.90;;;;;;;;;;5029010;28;20182;-70
2022/07/05 10:55:50;;;;;;;3.25;1.15;;;;;;;;;;5028738;28;20901;-71
2022/07/05 10:58:22;;;;;;;3.42;1.20;;;;;;;;;;5028824;28;20268;-71
2022/07/05 11:00:49;;;;;;;4.90;0.80;;;;;;;;;;5027734;28;20273;-71
2022/07/05 11:03:35;;;;;;;2.20;1.00;;;;;;;;;;5013812;28;20302;-70
2022/07/05 11:06:01;;;;;;;3.40;1.10;;;;;;;;;;5011854;28;20324;-70
2022/07/05 11:08:26;;;;;;;3.97;1.08;;;;;;;;;;5011646;28;20262;-70
2022/07/05 11:11:11;;;;;;;2.55;0.88;;;;;;;;;;4998090;28;20203;-72
2022/07/05 11:13:40;;;;;;;3.22;0.80;;;;;;;;;;5000675;28;20185;-72
2022/07/05 11:16:24;;;;;;;3.63;1.00;;;;;;;;;;5013535;28;20255;-71
2022/07/05 11:18:51;;;;;;;4.95;1.13;;;;;;;;;;5004235;28;20269;-71
2022/07/05 11:21:17;;;;;;;2.85;0.98;;;;;;;;;;5004297;28;20201;-72
2022/07/05 11:23:42;;;;;;;3.47;0.77;;;;;;;;;;5017808;28;20175;-71
2022/07/05 11:26:07;;;;;;;4.93;1.10;;;;;;;;;;5001192;28;20601;-71
2022/07/05 11:28:42;;;;;;;2.30;0.70;;;;;;;;;;5018918;28;20568;-72
2022/07/05 11:31:07;;;;;;;3.50;0.68;;;;;;;;;;5018458;28;20213;-71
2022/07/05 11:33:42;;;;;;;3.40;0.85;;;;;;;;;;5012990;28;20193;-73
2022/07/05 11:36:20;;;;;;;6.07;1.23;;;;;;;;;;5017957;28;20202;-72
2022/07/05 11:39:06;;;;;;;3.30;0.75;;;;;;;;;;5019652;28;20185;-72
2022/07/05 11:41:32;;;;;;;2.95;0.80;;;;;;;;;;5016274;28;20216;-72
2022/07/05 11:43:58;;;;;;;2.55;0.63;;;;;;;;;;5009961;28;20178;-72
2022/07/05 11:46:23;;;;;;;3.53;1.02;;;;;;;;;;5025698;28;20225;-71
2022/07/05 11:48:48;;;;;;;2.70;0.80;;;;;;;;;;5019733;28;20190;-73
2022/07/05 11:51:14;;;;;;;2.17;0.82;;;;;;;;;;5004139;28;20231;-72
2022/07/05 11:53:39;;;;;;;1.60;0.68;;;;;;;;;;5016992;28;20197;-71
2022/07/05 11:56:05;;;;;;;3.40;1.00;;;;;;;;;;5021002;28;20297;-72
2022/07/05 11:58:31;;;;;;;3.70;0.88;;;;;;;;;;5013718;28;20186;-72
2022/07/05 12:00:57;;;;;;;2.60;0.50;;;;;;;;;;5017269;28;20218;-72
2022/07/05 12:03:22;;;;;;;2.70;0.75;;;;;;;;;;5013373;28;20329;-72
2022/07/05 12:05:47;;;;;;;1.30;0.53;;;;;;;;;;5000764;28;20175;-71
2022/07/05 12:08:19;;;;;;;3.03;1.00;;;;;;;;;;4997702;28;20459;-71
2022/07/05 12:13:31;;;;;;;2.17;0.80;;;;;;;;;;5017561;28;20329;-72
2022/07/05 12:16:00;;;;;;;2.97;0.50;;;;;;;;;;5014649;28;20305;-72
2022/07/05 12:18:25;;;;;;;2.10;0.50;;;;;;;;;;5017645;28;20427;-71
2022/07/05 12:20:51;;;;;;;1.10;0.40;;;;;;;;;;5019376;28;20618;-71
2022/07/05 12:23:25;;;;;;;2.20;0.50;;;;;;;;;;5015810;28;20562;-72
2022/07/05 12:25:51;;;;;;;2.20;0.82;;;;;;;;;;5013982;28;21114;-70
2022/07/05 12:28:16;;;;;;;1.77;0.80;;;;;;;;;;5012241;28;20174;-71
2022/07/05 12:30:41;;;;;;;1.35;0.55;;;;;;;;;;5012848;28;20217;-70
2022/07/05 12:33:08;;;;;;;2.55;0.40;;;;;;;;;;5028999;28;20266;-70
2022/07/05 12:35:41;;;;;;;1.05;0.45;;;;;;;;;;5015994;28;20194;-70
2022/07/05 12:38:14;;;;;;;0.75;0.50;;;;;;;;;;5031492;28;20175;-70
2022/07/05 12:40:41;;;;;;;1.27;0.60;;;;;;;;;;5034181;28;20691;-71
2022/07/05 12:43:06;;;;;;;2.03;0.50;;;;;;;;;;5019111;28;20178;-70
2022/07/05 12:45:32;;;;;;;2.72;0.63;;;;;;;;;;5032013;28;20174;-71
2022/07/05 12:47:59;;;;;;;0.93;0.50;;;;;;;;;;5031602;28;20179;-71
2022/07/05 12:50:28;;;;;;;0.80;0.30;;;;;;;;;;5031230;28;20657;-70
2022/07/05 12:58:49;;;;;;;1.45;0.30;;;;;;;;;;5029339;28;20170;-71
2022/07/05 13:01:18;;;;;;;2.85;0.40;;;;;;;;;;5013185;28;20213;-71
2022/07/05 13:04:08;;;;;;;1.83;0.70;;;;;;;;;;4998696;28;20175;-71
2022/07/05 13:06:40;;;;;;;0.68;0.40;;;;;;;;;;5009576;28;20237;-71
2022/07/05 13:09:05;;;;;;;3.42;0.77;;;;;;;;;;5010462;28;20186;-71
2022/07/05 13:11:31;;;;;;;0.50;0.30;;;;;;;;;;5015862;28;20198;-70
2022/07/05 13:13:56;;;;;;;1.73;0.40;;;;;;;;;;5017519;28;20233;-72
2022/07/05 13:16:21;;;;;;;2.50;0.87;;;;;;;;;;4996873;28;20961;-71
2022/07/05 13:18:46;;;;;;;4.00;0.60;;;;;;;;;;5016200;28;20481;-71
2022/07/05 13:21:12;;;;;;;1.87;0.77;;;;;;;;;;5018565;28;20202;-71
2022/07/05 13:23:37;;;;;;;1.40;0.40;;;;;;;;;;5013910;28;21579;-71
2022/07/05 13:26:02;;;;;;;2.33;0.70;;;;;;;;;;5017177;28;20427;-71
2022/07/05 13:28:28;;;;;;;1.05;0.50;;;;;;;;;;4997952;28;20186;-71
2022/07/05 13:30:53;;;;;;;1.88;0.50;;;;;;;;;;4995943;28;20221;-71
2022/07/05 13:33:18;;;;;;;1.10;0.30;;;;;;;;;;5014992;28;20185;-71
2022/07/05 13:35:43;;;;;;;2.67;0.40;;;;;;;;;;5013014;28;20499;-70
2022/07/05 13:38:08;;;;;;;1.57;0.80;;;;;;;;;;5010438;28;20428;-70
2022/07/05 13:40:33;;;;;;;1.73;0.80;;;;;;;;;;5015308;28;20826;-71
2022/07/05 13:42:59;;;;;;;2.00;0.70;;;;;;;;;;5013211;28;20442;-71
2022/07/05 13:45:24;;;;;;;3.23;0.60;;;;;;;;;;5019643;28;20557;-71
2022/07/05 13:47:49;;;;;;;2.00;0.67;;;;;;;;;;5020091;28;20521;-71
2022/07/05 13:50:33;;;;;;;1.73;0.65;;;;;;;;;;5016914;28;20794;-71
2022/07/05 13:52:59;;;;;;;1.65;0.45;;;;;;;;;;5012994;28;20182;-70
2022/07/05 13:55:24;;;;;;;1.85;0.52;;;;;;;;;;5018473;28;20178;-71
2022/07/05 13:57:49;;;;;;;1.60;0.60;;;;;;;;;;5015625;28;20210;-71
2022/07/05 14:00:15;;;;;;;1.35;0.55;;;;;;;;;;5011922;28;20418;-71
2022/07/05 14:02:40;;;;;;;1.52;0.52;;;;;;;;;;5014447;28;20650;-70
2022/07/05 14:05:05;;;;;;;1.65;0.80;;;;;;;;;;5016333;28;20182;-71
2022/07/05 14:07:30;;;;;;;1.00;0.60;;;;;;;;;;5013382;28;20183;-71
2022/07/05 14:09:56;;;;;;;0.82;0.47;;;;;;;;;;5015048;28;20671;-71
2022/07/05 14:12:21;;;;;;;2.75;0.60;;;;;;;;;;5017855;28;20231;-71
2022/07/05 14:14:46;;;;;;;2.70;0.75;;;;;;;;;;4999277;28;20664;-71
2022/07/05 14:17:11;;;;;;;2.80;0.70;;;;;;;;;;5020689;28;20890;-71
2022/07/05 14:19:38;;;;;;;4.22;0.80;;;;;;;;;;5018804;28;20538;-71
2022/07/05 14:22:03;;;;;;;1.27;0.70;;;;;;;;;;5013374;28;20293;-71
2022/07/05 14:24:28;;;;;;;1.45;0.70;;;;;;;;;;5015417;28;20184;-71
2022/07/05 14:26:53;;;;;;;2.30;0.73;;;;;;;;;;5015622;28;20256;-71
2022/07/05 14:29:19;;;;;;;2.17;0.65;;;;;;;;;;5003476;28;20429;-72
2022/07/05 14:31:44;;;;;;;2.97;0.70;;;;;;;;;;5009442;23;20285;-73
2022/07/05 14:34:09;;;;;;;1.95;0.70;;;;;;;;;;5011355;28;20768;-74
2022/07/05 14:36:34;;;;;;;2.37;0.70;;;;;;;;;;5009710;28;20203;-74
2022/07/05 14:39:00;;;;;;;1.67;0.80;;;;;;;;;;5005802;28;20872;-74
2022/07/05 14:41:26;;;;;;;2.35;0.60;;;;;;;;;;5008001;28;20295;-73
2022/07/05 14:43:53;;;;;;;1.95;0.88;;;;;;;;;;5009095;28;20187;-74
2022/07/05 14:46:19;;;;;;;1.38;0.55;;;;;;;;;;5009973;28;20683;-74